createdAt,value
2018-08-31T00:00:43.732Z,100.00
2018-08-31T00:03:13.707Z,100.00
2018-08-31T00:05:54.760Z,100.00
2018-08-31T00:10:39.574Z,100.00
2018-08-31T00:13:09.083Z,100.00
2018-08-31T00:15:37.487Z,100.00
2018-08-31T00:18:05.910Z,100.00
2018-08-31T00:20:34.009Z,100.00
2018-08-31T00:23:02.113Z,100.00
2018-08-31T00:26:09.917Z,100.00
2018-08-31T00:28:49.791Z,100.00
2018-08-31T00:33:37.506Z,100.00
2018-08-31T00:36:15.838Z,100.00
2018-08-31T00:38:59.173Z,100.00
2018-08-31T00:41:38.606Z,100.00
2018-08-31T00:45:39.399Z,100.00
2018-08-31T00:48:08.178Z,100.00
2018-08-31T00:50:36.734Z,100.00
2018-08-31T00:53:05.966Z,100.00
2018-08-31T00:55:34.375Z,100.00
2018-08-31T00:58:02.805Z,100.00
2018-08-31T01:00:31.154Z,100.00
2018-08-31T01:02:59.409Z,100.00
2018-08-31T01:05:27.727Z,100.00
2018-08-31T01:07:56.000Z,100.00
2018-08-31T01:10:24.843Z,100.00
2018-08-31T01:12:53.753Z,100.00
2018-08-31T01:15:22.160Z,100.00
2018-08-31T01:17:50.260Z,100.00
2018-08-31T01:20:18.389Z,100.00
2018-08-31T01:22:46.391Z,100.00
2018-08-31T01:25:15.013Z,100.00
2018-08-31T01:27:43.080Z,100.00
2018-08-31T01:30:11.315Z,100.00
2018-08-31T01:32:39.593Z,100.00
2018-08-31T01:35:07.863Z,100.00
2018-08-31T01:37:36.312Z,100.00
2018-08-31T01:40:04.661Z,100.00
2018-08-31T01:42:32.925Z,100.00
2018-08-31T01:45:01.239Z,100.00
2018-08-31T01:47:29.681Z,100.00
2018-08-31T01:49:57.775Z,100.00
2018-08-31T01:52:25.979Z,100.00
2018-08-31T01:54:54.370Z,100.00
2018-08-31T01:57:22.475Z,100.00
2018-08-31T01:59:50.583Z,100.00
2018-08-31T02:02:20.173Z,100.00
2018-08-31T02:04:48.227Z,100.00
2018-08-31T02:07:16.683Z,100.00
2018-08-31T02:09:45.277Z,100.00
2018-08-31T02:12:13.575Z,100.00
2018-08-31T02:14:41.794Z,100.00
2018-08-31T02:17:09.847Z,100.00
2018-08-31T02:19:38.080Z,100.00
2018-08-31T02:22:06.448Z,100.00
2018-08-31T02:24:34.574Z,100.00
2018-08-31T02:27:02.659Z,100.00
2018-08-31T02:29:30.809Z,100.00
2018-08-31T02:31:58.952Z,100.00
2018-08-31T02:34:27.092Z,100.00
2018-08-31T02:36:55.196Z,100.00
2018-08-31T02:39:23.312Z,100.00
2018-08-31T02:41:51.388Z,100.00
2018-08-31T02:44:19.491Z,100.00
2018-08-31T02:46:47.613Z,100.00
2018-08-31T02:49:15.800Z,100.00
2018-08-31T02:51:43.926Z,100.00
2018-08-31T02:54:12.052Z,100.00
2018-08-31T02:56:40.109Z,100.00
2018-08-31T02:59:08.296Z,100.00
2018-08-31T03:01:36.458Z,100.00
2018-08-31T03:04:04.704Z,100.00
2018-08-31T03:06:32.768Z,100.00
2018-08-31T03:09:00.952Z,100.00
2018-08-31T03:11:29.328Z,100.00
2018-08-31T03:13:57.501Z,100.00
2018-08-31T03:16:25.589Z,100.00
2018-08-31T03:18:53.801Z,100.00
2018-08-31T03:21:21.908Z,100.00
2018-08-31T03:23:49.919Z,100.00
2018-08-31T03:26:18.161Z,100.00
2018-08-31T03:28:46.336Z,100.00
2018-08-31T03:31:14.489Z,100.00
2018-08-31T03:33:42.766Z,100.00
2018-08-31T03:36:10.850Z,100.00
2018-08-31T03:38:39.025Z,100.00
2018-08-31T03:41:07.393Z,100.00
2018-08-31T03:43:35.555Z,100.00
2018-08-31T03:46:03.612Z,100.00
2018-08-31T03:48:31.872Z,100.00
2018-08-31T03:51:00.007Z,100.00
2018-08-31T03:53:28.302Z,100.00
2018-08-31T03:55:56.449Z,100.00
2018-08-31T03:58:24.608Z,100.00
2018-08-31T04:00:53.062Z,100.00
2018-08-31T04:03:21.197Z,100.00
2018-08-31T04:05:49.397Z,100.00
2018-08-31T04:08:17.551Z,100.00
2018-08-31T04:10:45.684Z,100.00
2018-08-31T04:13:13.884Z,100.00
2018-08-31T04:15:42.094Z,100.00
2018-08-31T04:18:10.300Z,100.00
2018-08-31T04:20:38.544Z,98.50
2018-08-31T04:23:13.047Z,94.94
2018-08-31T04:25:43.194Z,93.95
2018-08-31T04:28:13.553Z,92.30
2018-08-31T04:30:44.267Z,91.13
2018-08-31T04:33:16.253Z,88.39
2018-08-31T04:35:50.226Z,85.76
2018-08-31T04:38:24.273Z,83.81
2018-08-31T04:40:55.228Z,83.60
2018-08-31T04:43:23.962Z,84.49
2018-08-31T04:45:55.591Z,83.46
2018-08-31T04:48:25.789Z,86.52
2018-08-31T04:50:57.990Z,87.04
2018-08-31T04:53:31.417Z,83.78
2018-08-31T04:56:01.634Z,82.24
2018-08-31T04:58:32.504Z,78.28
2018-08-31T05:01:02.935Z,77.34
2018-08-31T05:03:31.827Z,78.41
2018-08-31T05:05:59.950Z,78.52
2018-08-31T05:08:28.474Z,77.01
2018-08-31T05:10:56.832Z,77.98
2018-08-31T05:13:25.031Z,76.31
2018-08-31T05:15:53.315Z,77.06
2018-08-31T05:18:21.641Z,77.99
2018-08-31T05:20:49.865Z,77.82
2018-08-31T05:23:24.112Z,76.28
2018-08-31T05:25:56.750Z,76.47
2018-08-31T05:28:29.819Z,76.42
2018-08-31T05:30:57.972Z,78.20
2018-08-31T05:33:26.108Z,75.94
2018-08-31T05:35:54.285Z,77.22
2018-08-31T05:38:22.601Z,77.69
2018-08-31T05:40:50.751Z,76.64
2018-08-31T05:43:19.245Z,76.55
2018-08-31T05:45:47.427Z,76.47
2018-08-31T05:48:15.665Z,75.88
2018-08-31T05:50:44.347Z,75.03
2018-08-31T05:53:12.622Z,74.79
2018-08-31T05:55:40.795Z,75.09
2018-08-31T05:58:09.003Z,73.08
2018-08-31T06:00:37.085Z,71.41
2018-08-31T06:03:06.215Z,71.24
2018-08-31T06:05:34.356Z,72.56
2018-08-31T06:08:02.636Z,72.42
2018-08-31T06:10:30.877Z,74.74
2018-08-31T06:12:59.269Z,74.85
2018-08-31T06:15:27.886Z,74.70
2018-08-31T06:17:56.323Z,74.38
2018-08-31T06:20:24.592Z,75.56
2018-08-31T06:22:52.903Z,75.81
2018-08-31T06:25:21.099Z,76.27
2018-08-31T06:27:49.383Z,75.95
2018-08-31T06:30:17.599Z,77.00
2018-08-31T06:32:46.334Z,75.98
2018-08-31T06:35:14.733Z,74.88
2018-08-31T06:37:43.005Z,75.61
2018-08-31T06:40:11.257Z,76.49
2018-08-31T06:42:39.569Z,75.02
2018-08-31T06:45:07.821Z,75.26
2018-08-31T06:47:36.022Z,75.96
2018-08-31T06:50:04.391Z,75.92
2018-08-31T06:52:32.730Z,75.08
2018-08-31T06:55:01.085Z,73.06
2018-08-31T06:57:29.338Z,72.48
2018-08-31T06:59:57.828Z,71.88
2018-08-31T07:02:26.157Z,72.73
2018-08-31T07:04:54.633Z,75.30
2018-08-31T07:07:23.171Z,71.00
2018-08-31T07:09:51.536Z,72.09
2018-08-31T07:12:19.972Z,71.10
2018-08-31T07:14:48.357Z,70.79
2018-08-31T07:17:16.703Z,69.67
2018-08-31T07:19:44.934Z,68.78
2018-08-31T07:22:13.376Z,70.67
2018-08-31T07:24:41.624Z,67.01
2018-08-31T07:27:09.824Z,68.05
2018-08-31T07:29:38.067Z,70.18
2018-08-31T07:32:06.441Z,68.20
2018-08-31T07:34:34.832Z,67.16
2018-08-31T07:37:03.231Z,67.03
2018-08-31T07:39:31.815Z,69.45
2018-08-31T07:42:00.356Z,65.56
2018-08-31T07:44:28.739Z,67.92
2018-08-31T07:46:57.009Z,66.14
2018-08-31T07:49:25.274Z,65.34
2018-08-31T07:51:53.447Z,68.24
2018-08-31T07:54:21.620Z,63.80
2018-08-31T07:56:49.900Z,64.02
2018-08-31T07:59:17.978Z,61.71
2018-08-31T08:01:46.569Z,58.29
2018-08-31T08:04:15.236Z,61.33
2018-08-31T08:06:44.002Z,61.33
2018-08-31T08:09:12.439Z,58.98
2018-08-31T08:11:40.686Z,62.04
2018-08-31T08:14:09.054Z,61.40
2018-08-31T08:16:37.244Z,61.52
2018-08-31T08:19:06.016Z,57.65
2018-08-31T08:21:34.807Z,57.72
2018-08-31T08:24:03.402Z,59.24
2018-08-31T08:26:31.809Z,57.92
2018-08-31T08:29:00.128Z,57.66
2018-08-31T08:31:28.431Z,58.04
2018-08-31T08:33:56.710Z,55.22
2018-08-31T08:36:24.905Z,57.73
2018-08-31T08:38:53.132Z,57.12
2018-08-31T08:41:21.487Z,53.11
2018-08-31T08:43:49.574Z,55.70
2018-08-31T08:46:17.924Z,55.61
2018-08-31T08:48:46.303Z,54.90
2018-08-31T08:51:14.929Z,53.33
2018-08-31T08:53:43.202Z,53.16
2018-08-31T08:56:11.509Z,52.81
2018-08-31T08:58:40.034Z,53.66
2018-08-31T09:01:08.279Z,51.76
2018-08-31T09:03:36.570Z,50.17
2018-08-31T09:06:04.884Z,50.71
2018-08-31T09:08:34.698Z,51.66
2018-08-31T09:11:03.250Z,51.47
2018-08-31T09:13:31.583Z,52.83
2018-08-31T09:15:59.904Z,49.01
2018-08-31T09:18:29.167Z,50.78
2018-08-31T09:20:57.731Z,50.42
2018-08-31T09:23:26.807Z,49.99
2018-08-31T09:25:57.174Z,49.26
2018-08-31T09:28:25.396Z,49.95
2018-08-31T09:30:53.808Z,51.66
2018-08-31T09:33:22.120Z,47.68
2018-08-31T09:35:50.562Z,47.51
2018-08-31T09:38:19.566Z,47.58
2018-08-31T09:40:57.690Z,48.85
2018-08-31T09:43:26.185Z,46.11
2018-08-31T09:46:03.393Z,46.24
2018-08-31T09:48:31.713Z,46.30
2018-08-31T09:51:01.136Z,44.41
2018-08-31T09:53:29.612Z,40.86
2018-08-31T09:55:58.219Z,39.80
2018-08-31T09:58:26.747Z,38.29
2018-08-31T10:01:00.613Z,38.46
2018-08-31T10:03:28.850Z,38.90
2018-08-31T10:05:57.274Z,38.05
2018-08-31T10:08:26.946Z,39.40
2018-08-31T10:10:55.573Z,40.16
2018-08-31T10:13:24.872Z,39.25
2018-08-31T10:15:53.161Z,39.26
2018-08-31T10:18:21.598Z,39.58
2018-08-31T10:20:49.981Z,38.20
2018-08-31T10:23:18.465Z,39.26
2018-08-31T10:25:46.818Z,39.09
2018-08-31T10:28:15.188Z,37.80
2018-08-31T10:30:43.570Z,41.39
2018-08-31T10:33:12.384Z,38.72
2018-08-31T10:35:41.284Z,37.17
2018-08-31T10:38:09.992Z,37.20
2018-08-31T10:40:39.163Z,40.61
2018-08-31T10:43:07.772Z,38.46
2018-08-31T10:45:36.381Z,38.23
2018-08-31T10:48:07.356Z,39.36
2018-08-31T10:50:38.386Z,42.03
2018-08-31T10:53:07.234Z,39.25
2018-08-31T10:55:37.549Z,38.20
2018-08-31T10:58:07.670Z,37.71
2018-08-31T11:00:36.700Z,40.19
2018-08-31T11:03:05.312Z,38.62
2018-08-31T11:05:34.845Z,37.78
2018-08-31T11:08:03.659Z,33.97
2018-08-31T11:10:32.333Z,32.74
2018-08-31T11:13:00.883Z,33.96
2018-08-31T11:15:30.019Z,33.65
2018-08-31T11:17:58.636Z,34.83
2018-08-31T11:20:27.105Z,36.66
2018-08-31T11:22:55.448Z,34.42
2018-08-31T11:25:23.915Z,34.90
2018-08-31T11:27:52.288Z,37.55
2018-08-31T11:30:20.644Z,37.41
2018-08-31T11:32:49.179Z,34.73
2018-08-31T11:35:17.828Z,32.66
2018-08-31T11:37:46.120Z,34.51
2018-08-31T11:40:14.430Z,32.60
2018-08-31T11:42:42.799Z,35.22
2018-08-31T11:45:11.108Z,31.40
2018-08-31T11:47:39.673Z,30.40
2018-08-31T11:50:08.043Z,31.15
2018-08-31T11:52:36.601Z,34.11
2018-08-31T11:55:05.226Z,32.67
2018-08-31T11:57:33.679Z,33.14
2018-08-31T12:00:02.136Z,32.30
2018-08-31T12:02:30.448Z,33.47
2018-08-31T12:04:58.770Z,32.04
2018-08-31T12:07:27.194Z,34.62
2018-08-31T12:09:55.638Z,30.86
2018-08-31T12:12:24.046Z,34.25
2018-08-31T12:14:52.873Z,37.42
2018-08-31T12:17:21.135Z,31.07
2018-08-31T12:19:49.893Z,34.63
2018-08-31T12:22:18.497Z,35.25
2018-08-31T12:24:46.782Z,33.72
2018-08-31T12:27:15.117Z,34.83
2018-08-31T12:29:44.009Z,33.44
2018-08-31T12:32:12.710Z,34.36
2018-08-31T12:34:41.395Z,37.59
2018-08-31T12:37:09.708Z,35.43
2018-08-31T12:39:37.929Z,35.94
2018-08-31T12:42:06.601Z,38.21
2018-08-31T12:44:34.816Z,36.60
2018-08-31T12:47:03.140Z,38.04
2018-08-31T12:49:31.735Z,38.98
2018-08-31T12:51:59.973Z,37.96
2018-08-31T12:54:28.195Z,36.81
2018-08-31T12:56:56.350Z,40.75
2018-08-31T12:59:24.472Z,38.17
2018-08-31T13:01:52.750Z,41.99
2018-08-31T13:04:20.941Z,41.22
2018-08-31T13:06:49.169Z,42.22
2018-08-31T13:09:17.523Z,43.06
2018-08-31T13:11:45.707Z,45.92
2018-08-31T13:14:13.982Z,39.24
2018-08-31T13:16:42.245Z,36.21
2018-08-31T13:19:11.280Z,35.80
2018-08-31T13:21:40.471Z,38.20
2018-08-31T13:24:09.055Z,35.97
2018-08-31T13:26:37.678Z,35.79
2018-08-31T13:29:06.032Z,37.56
2018-08-31T13:31:34.132Z,35.58
2018-08-31T13:34:02.321Z,47.37
2018-08-31T13:36:30.537Z,35.45
2018-08-31T13:38:58.766Z,35.79
2018-08-31T13:41:27.015Z,40.13
2018-08-31T13:43:55.514Z,35.53
2018-08-31T13:46:24.119Z,36.26
2018-08-31T13:48:52.505Z,37.34
2018-08-31T13:51:21.037Z,34.87
2018-08-31T13:53:49.222Z,36.25
2018-08-31T13:56:17.845Z,36.29
2018-08-31T13:58:46.249Z,34.65
2018-08-31T14:01:14.495Z,36.55
2018-08-31T14:03:42.831Z,36.68
2018-08-31T14:06:11.134Z,38.55
2018-08-31T14:08:39.221Z,45.67
2018-08-31T14:11:07.531Z,42.62
2018-08-31T14:13:35.959Z,36.21
2018-08-31T14:16:04.221Z,35.53
2018-08-31T14:18:32.400Z,36.75
2018-08-31T14:21:00.611Z,33.09
2018-08-31T14:23:28.699Z,31.55
2018-08-31T14:25:56.955Z,32.68
2018-08-31T14:28:25.335Z,30.41
2018-08-31T14:30:53.461Z,31.94
2018-08-31T14:33:21.644Z,31.79
2018-08-31T14:35:49.910Z,32.59
2018-08-31T14:38:18.031Z,34.38
2018-08-31T14:40:46.205Z,33.61
2018-08-31T14:43:15.932Z,34.47
2018-08-31T14:45:44.397Z,34.14
2018-08-31T14:48:12.552Z,35.01
2018-08-31T14:50:40.886Z,35.06
2018-08-31T14:53:09.487Z,34.18
2018-08-31T14:55:38.075Z,35.78
2018-08-31T14:58:07.061Z,35.83
2018-08-31T15:00:36.165Z,36.12
2018-08-31T15:03:04.856Z,36.35
2018-08-31T15:05:33.227Z,37.53
2018-08-31T15:08:01.373Z,35.89
2018-08-31T15:10:29.524Z,39.24
2018-08-31T15:12:58.092Z,41.83
2018-08-31T15:15:26.440Z,43.36
2018-08-31T15:17:54.706Z,44.34
2018-08-31T15:20:23.208Z,47.79
2018-08-31T15:22:51.573Z,49.11
2018-08-31T15:25:20.037Z,49.78
2018-08-31T15:27:48.236Z,50.78
2018-08-31T15:30:16.528Z,52.31
2018-08-31T15:32:44.865Z,52.45
2018-08-31T15:35:13.233Z,51.15
2018-08-31T15:37:41.620Z,54.52
2018-08-31T15:40:09.816Z,55.23
2018-08-31T15:42:38.111Z,54.47
2018-08-31T15:45:07.279Z,55.59
2018-08-31T15:47:35.769Z,56.32
2018-08-31T15:50:04.031Z,54.92
2018-08-31T15:52:32.234Z,58.89
2018-08-31T15:55:00.482Z,57.29
2018-08-31T15:57:28.782Z,60.50
2018-08-31T15:59:56.967Z,57.67
2018-08-31T16:02:25.344Z,60.36
2018-08-31T16:04:53.568Z,61.58
2018-08-31T16:07:21.764Z,62.36
2018-08-31T16:09:50.038Z,61.79
2018-08-31T16:12:19.112Z,61.38
2018-08-31T16:14:47.872Z,53.12
2018-08-31T16:17:16.909Z,46.41
2018-08-31T16:19:47.453Z,53.08
2018-08-31T16:22:17.034Z,52.68
2018-08-31T16:24:45.330Z,49.33
2018-08-31T16:27:13.623Z,47.70
2018-08-31T16:29:41.758Z,49.68
2018-08-31T16:32:09.837Z,48.79
2018-08-31T16:34:38.021Z,53.22
2018-08-31T16:37:06.100Z,50.83
2018-08-31T16:39:34.384Z,51.22
2018-08-31T16:42:02.763Z,57.43
2018-08-31T16:44:30.807Z,59.50
2018-08-31T16:46:58.993Z,56.45
2018-08-31T16:49:28.423Z,58.63
2018-08-31T16:51:58.358Z,57.35
2018-08-31T16:54:27.958Z,58.65
2018-08-31T16:56:56.155Z,49.87
2018-08-31T16:59:24.339Z,55.68
2018-08-31T17:01:54.474Z,59.24
2018-08-31T17:04:23.970Z,59.64
2018-08-31T17:06:53.373Z,54.42
2018-08-31T17:09:21.926Z,58.09
2018-08-31T17:11:50.347Z,61.57
2018-08-31T17:14:19.049Z,59.92
2018-08-31T17:16:48.407Z,55.24
2018-08-31T17:19:16.538Z,59.06
2018-08-31T17:21:46.402Z,61.86
2018-08-31T17:24:17.919Z,63.96
2018-08-31T17:26:51.549Z,60.50
2018-08-31T17:29:29.131Z,63.50
2018-08-31T17:32:04.777Z,63.28
2018-08-31T17:34:38.890Z,64.34
2018-08-31T17:37:12.753Z,66.23
2018-08-31T17:39:41.244Z,67.74
2018-08-31T17:42:10.471Z,63.15
2018-08-31T17:44:38.832Z,67.47
2018-08-31T17:47:07.056Z,67.78
2018-08-31T17:49:35.353Z,67.54
2018-08-31T17:52:03.563Z,68.87
2018-08-31T17:54:31.868Z,68.97
2018-08-31T17:57:00.184Z,68.14
2018-08-31T17:59:28.356Z,67.36
2018-08-31T18:01:56.805Z,69.25
2018-08-31T18:04:25.013Z,69.31
2018-08-31T18:06:53.064Z,68.46
2018-08-31T18:09:21.461Z,70.89
2018-08-31T18:11:49.543Z,70.28
2018-08-31T18:14:17.686Z,69.25
2018-08-31T18:16:45.906Z,71.87
2018-08-31T18:19:14.062Z,70.87
2018-08-31T18:21:42.343Z,71.62
2018-08-31T18:24:10.735Z,72.10
2018-08-31T18:26:38.953Z,71.27
2018-08-31T18:29:07.265Z,70.43
2018-08-31T18:31:35.376Z,70.87
2018-08-31T18:34:03.529Z,71.36
2018-08-31T18:36:31.832Z,70.71
2018-08-31T18:38:59.922Z,69.53
2018-08-31T18:41:28.084Z,70.94
2018-08-31T18:43:56.341Z,71.30
2018-08-31T18:46:24.563Z,70.99
2018-08-31T18:48:53.002Z,71.67
2018-08-31T18:51:21.079Z,71.78
2018-08-31T18:53:49.277Z,71.92
2018-08-31T18:56:17.548Z,70.40
2018-08-31T18:58:45.704Z,70.83
2018-08-31T19:01:13.878Z,72.22
2018-08-31T19:03:42.461Z,71.92
2018-08-31T19:06:10.963Z,71.66
2018-08-31T19:08:39.328Z,71.97
2018-08-31T19:11:07.537Z,72.75
2018-08-31T19:13:35.787Z,73.74
2018-08-31T19:16:04.225Z,73.22
2018-08-31T19:18:32.843Z,72.70
2018-08-31T19:21:01.022Z,73.18
2018-08-31T19:23:29.333Z,73.43
2018-08-31T19:25:57.509Z,74.17
2018-08-31T19:28:25.803Z,72.21
2018-08-31T19:30:54.234Z,74.64
2018-08-31T19:33:22.638Z,72.02
2018-08-31T19:35:50.937Z,73.51
2018-08-31T19:38:19.069Z,74.79
2018-08-31T19:40:47.524Z,73.51
2018-08-31T19:43:15.723Z,73.06
2018-08-31T19:45:43.883Z,73.74
2018-08-31T19:48:12.055Z,74.31
2018-08-31T19:50:40.183Z,73.90
2018-08-31T19:53:08.324Z,73.62
2018-08-31T19:55:37.233Z,73.11
2018-08-31T19:58:05.739Z,73.48
2018-08-31T20:00:34.101Z,73.55
2018-08-31T20:03:02.238Z,73.70
2018-08-31T20:05:30.675Z,73.73
2018-08-31T20:07:59.094Z,73.91
2018-08-31T20:10:27.222Z,75.40
2018-08-31T20:12:55.374Z,76.05
2018-08-31T20:15:23.513Z,77.55
2018-08-31T20:17:51.598Z,78.49
2018-08-31T20:20:19.629Z,78.16
2018-08-31T20:22:48.006Z,78.76
2018-08-31T20:25:16.099Z,78.99
2018-08-31T20:27:44.238Z,80.38
2018-08-31T20:30:12.564Z,80.20
2018-08-31T20:32:40.748Z,82.00
2018-08-31T20:35:09.013Z,82.17
2018-08-31T20:37:37.082Z,81.71
2018-08-31T20:40:05.662Z,82.28
2018-08-31T20:42:33.911Z,84.10
2018-08-31T20:45:02.322Z,83.75
2018-08-31T20:47:30.712Z,85.20
2018-08-31T20:49:58.876Z,84.97
2018-08-31T20:52:27.073Z,84.03
2018-08-31T20:54:55.143Z,84.66
2018-08-31T20:57:23.306Z,84.39
2018-08-31T20:59:51.516Z,85.13
2018-08-31T21:02:19.836Z,85.60
2018-08-31T21:04:48.071Z,84.95
2018-08-31T21:07:16.374Z,84.75
2018-08-31T21:09:44.695Z,84.23
2018-08-31T21:12:13.162Z,85.24
2018-08-31T21:14:41.380Z,83.97
2018-08-31T21:17:09.534Z,85.97
2018-08-31T21:19:37.669Z,85.62
2018-08-31T21:22:06.030Z,85.00
2018-08-31T21:24:34.402Z,84.44
2018-08-31T21:27:02.531Z,84.61
2018-08-31T21:29:30.937Z,84.46
2018-08-31T21:31:59.163Z,85.54
2018-08-31T21:34:27.488Z,85.16
2018-08-31T21:36:55.656Z,84.78
2018-08-31T21:39:23.845Z,85.81
2018-08-31T21:41:52.063Z,86.11
2018-08-31T21:44:20.199Z,86.83
2018-08-31T21:46:48.378Z,86.08
2018-08-31T21:49:16.489Z,85.94
2018-08-31T21:51:44.544Z,86.07
2018-08-31T21:54:12.665Z,85.98
2018-08-31T21:56:40.876Z,85.87
2018-08-31T21:59:09.091Z,87.40
2018-08-31T22:01:38.303Z,87.47
2018-08-31T22:04:06.905Z,87.16
2018-08-31T22:06:35.722Z,87.65
2018-08-31T22:09:05.384Z,87.67
2018-08-31T22:11:33.517Z,87.44
2018-08-31T22:14:01.740Z,87.44
2018-08-31T22:16:29.794Z,88.96
2018-08-31T22:18:57.937Z,88.91
2018-08-31T22:21:26.093Z,88.26
2018-08-31T22:23:55.041Z,87.51
2018-08-31T22:26:23.523Z,87.71
2018-08-31T22:28:51.554Z,87.00
2018-08-31T22:31:20.788Z,86.56
2018-08-31T22:33:49.170Z,85.98
2018-08-31T22:36:17.430Z,87.07
2018-08-31T22:38:46.045Z,87.21
2018-08-31T22:41:14.139Z,87.98
2018-08-31T22:43:47.645Z,87.88
2018-08-31T22:46:16.562Z,88.14
2018-08-31T22:48:44.785Z,89.05
2018-08-31T22:51:13.985Z,88.93
2018-08-31T22:53:42.478Z,89.39
2018-08-31T22:56:10.925Z,89.97
2018-08-31T22:58:39.007Z,90.42
2018-08-31T23:01:08.159Z,88.55
2018-08-31T23:03:36.309Z,89.25
2018-08-31T23:06:04.414Z,89.08
2018-08-31T23:08:32.703Z,88.47
2018-08-31T23:11:01.586Z,89.02
2018-08-31T23:13:29.757Z,88.18
2018-08-31T23:15:58.502Z,89.25
2018-08-31T23:18:26.859Z,90.31
2018-08-31T23:21:00.975Z,91.40
2018-08-31T23:23:36.833Z,90.65
2018-08-31T23:26:05.450Z,91.28
2018-08-31T23:28:33.527Z,90.32
2018-08-31T23:31:01.692Z,91.06
2018-08-31T23:33:29.984Z,90.86
2018-08-31T23:35:58.165Z,91.03
2018-08-31T23:38:26.336Z,91.34
2018-08-31T23:40:54.532Z,91.56
2018-08-31T23:43:22.721Z,91.98
2018-08-31T23:45:50.902Z,90.63
2018-08-31T23:48:19.359Z,91.37
2018-08-31T23:50:47.604Z,90.43
2018-08-31T23:53:15.765Z,92.05
2018-08-31T23:55:43.945Z,91.95
2018-08-31T23:58:12.169Z,90.08
